createdAt,value
2024-04-13T00:01:38.433Z,14.65
2024-04-13T00:04:07.078Z,14.73
2024-04-13T00:06:42.546Z,14.63
2024-04-13T00:09:14.318Z,14.72
2024-04-13T00:11:44.051Z,14.56
2024-04-13T00:14:11.232Z,14.51
2024-04-13T00:16:41.641Z,14.48
2024-04-13T00:19:09.110Z,14.47
2024-04-13T00:21:43.025Z,14.51
2024-04-13T00:24:12.721Z,14.42
2024-04-13T00:26:42.560Z,14.45
2024-04-13T00:29:10.354Z,14.49
2024-04-13T00:31:40.467Z,14.42
2024-04-13T00:34:07.855Z,14.37
2024-04-13T00:36:41.687Z,14.42
2024-04-13T00:39:12.711Z,14.23
2024-04-13T00:41:42.738Z,14.33
2024-04-13T00:44:09.861Z,14.26
2024-04-13T00:46:43.770Z,14.24
2024-04-13T00:49:15.399Z,14.18
2024-04-13T00:51:47.850Z,14.22
2024-04-13T00:54:20.023Z,14.21
2024-04-13T00:56:54.458Z,14.17
2024-04-13T00:59:24.106Z,14.18
2024-04-13T01:01:54.580Z,14.12
2024-04-13T01:04:22.817Z,14.31
2024-04-13T01:06:56.501Z,14.26
2024-04-13T01:09:26.642Z,14.17
2024-04-13T01:11:56.438Z,14.08
2024-04-13T01:14:24.040Z,14.14
2024-04-13T01:16:54.125Z,13.97
2024-04-13T01:19:21.254Z,13.98
2024-04-13T01:21:51.186Z,13.97
2024-04-13T01:24:22.196Z,13.86
2024-04-13T01:26:52.747Z,13.92
2024-04-13T01:29:20.048Z,13.86
2024-04-13T01:31:49.824Z,13.91
2024-04-13T01:34:16.955Z,13.98
2024-04-13T01:36:46.979Z,13.86
2024-04-13T01:39:14.968Z,13.95
2024-04-13T01:41:51.465Z,13.82
2024-04-13T01:44:18.952Z,13.79
2024-04-13T01:46:48.794Z,13.81
2024-04-13T01:49:16.138Z,13.75
2024-04-13T01:51:45.866Z,13.81
2024-04-13T01:54:12.981Z,13.70
2024-04-13T01:56:42.724Z,13.70
2024-04-13T01:59:12.712Z,13.64
2024-04-13T02:01:42.665Z,13.65
2024-04-13T02:04:10.127Z,13.60
2024-04-13T02:06:40.328Z,13.62
2024-04-13T02:09:07.612Z,13.65
2024-04-13T02:11:38.384Z,13.44
2024-04-13T02:14:05.584Z,13.61
2024-04-13T02:16:38.526Z,13.62
2024-04-13T02:19:06.225Z,13.63
2024-04-13T02:21:36.796Z,13.53
2024-04-13T02:24:07.293Z,13.35
2024-04-13T02:26:37.196Z,13.37
2024-04-13T02:29:04.354Z,13.37
2024-04-13T02:31:37.532Z,13.54
2024-04-13T02:34:08.764Z,13.66
2024-04-13T02:36:40.281Z,13.79
2024-04-13T02:39:09.630Z,13.91
2024-04-13T02:41:39.741Z,13.94
2024-04-13T02:44:06.928Z,14.05
2024-04-13T02:46:36.964Z,14.15
2024-04-13T02:49:07.607Z,14.12
2024-04-13T02:51:40.757Z,14.22
2024-04-13T02:54:09.158Z,14.20
2024-04-13T02:56:39.815Z,14.11
2024-04-13T02:59:08.236Z,14.18
2024-04-13T03:01:38.076Z,14.30
2024-04-13T03:04:08.280Z,14.31
2024-04-13T03:06:38.584Z,14.07
2024-04-13T03:09:06.035Z,13.79
2024-04-13T03:11:36.240Z,13.37
2024-04-13T03:14:04.109Z,13.10
2024-04-13T03:16:33.976Z,13.02
2024-04-13T03:19:01.121Z,12.76
2024-04-13T03:21:36.542Z,12.67
2024-04-13T03:24:05.300Z,12.66
2024-04-13T03:26:35.215Z,12.60
2024-04-13T03:29:02.420Z,12.62
2024-04-13T03:31:32.753Z,12.57
2024-04-13T03:34:00.345Z,12.41
2024-04-13T03:36:37.630Z,12.35
2024-04-13T03:39:10.210Z,12.48
2024-04-13T03:41:43.146Z,12.58
2024-04-13T03:44:14.170Z,12.50
2024-04-13T03:46:46.971Z,12.40
2024-04-13T03:49:14.230Z,12.43
2024-04-13T03:51:47.317Z,12.50
2024-04-13T03:54:14.531Z,12.31
2024-04-13T03:56:44.555Z,12.44
2024-04-13T03:59:11.941Z,12.39
2024-04-13T04:01:42.100Z,12.35
2024-04-13T04:04:15.083Z,12.40
2024-04-13T04:06:47.654Z,12.51
2024-04-13T04:09:14.879Z,12.35
2024-04-13T04:11:46.394Z,12.39
2024-04-13T04:14:13.854Z,12.31
2024-04-13T04:16:43.664Z,12.31
2024-04-13T04:19:10.868Z,12.34
2024-04-13T04:21:42.319Z,12.42
2024-04-13T04:24:12.723Z,12.39
2024-04-13T04:26:42.846Z,12.41
2024-04-13T04:29:10.033Z,12.41
2024-04-13T04:31:39.805Z,12.34
2024-04-13T04:34:07.028Z,12.36
2024-04-13T04:36:36.965Z,12.40
2024-04-13T04:39:04.721Z,12.37
2024-04-13T04:41:37.126Z,12.36
2024-04-13T04:44:04.293Z,12.39
2024-04-13T04:46:34.217Z,12.37
2024-04-13T04:49:01.481Z,12.42
2024-04-13T04:51:31.311Z,12.51
2024-04-13T04:53:59.337Z,12.60
2024-04-13T04:56:30.282Z,12.63
2024-04-13T04:59:00.094Z,12.67
2024-04-13T05:01:29.966Z,12.75
2024-04-13T05:03:57.277Z,12.70
2024-04-13T05:06:27.169Z,12.77
2024-04-13T05:08:54.385Z,12.76
2024-04-13T05:11:24.074Z,12.81
2024-04-13T05:13:51.574Z,12.84
2024-04-13T05:16:24.013Z,12.90
2024-04-13T05:18:51.295Z,12.92
2024-04-13T05:21:21.767Z,13.04
2024-04-13T05:23:51.714Z,13.17
2024-04-13T05:26:25.267Z,13.07
2024-04-13T05:28:52.807Z,13.17
2024-04-13T05:31:25.387Z,13.25
2024-04-13T05:33:52.833Z,13.28
2024-04-13T05:36:24.320Z,13.30
2024-04-13T05:38:51.616Z,13.31
2024-04-13T05:41:21.654Z,13.40
2024-04-13T05:43:48.841Z,13.35
2024-04-13T05:46:19.985Z,13.46
2024-04-13T05:48:51.441Z,13.33
2024-04-13T05:51:21.248Z,13.48
2024-04-13T05:53:48.432Z,13.44
2024-04-13T05:56:18.258Z,13.60
2024-04-13T05:58:45.458Z,13.69
2024-04-13T06:01:15.323Z,13.60
2024-04-13T06:03:42.651Z,13.77
2024-04-13T06:06:15.141Z,13.83
2024-04-13T06:08:42.326Z,13.78
2024-04-13T06:11:12.143Z,13.83
2024-04-13T06:13:39.405Z,13.94
2024-04-13T06:16:09.689Z,13.93
2024-04-13T06:18:36.892Z,14.01
2024-04-13T06:21:07.054Z,14.08
2024-04-13T06:23:36.976Z,14.10
2024-04-13T06:26:07.374Z,14.24
2024-04-13T06:28:34.621Z,14.22
2024-04-13T06:31:04.373Z,14.39
2024-04-13T06:33:31.778Z,14.44
2024-04-13T06:36:01.636Z,14.40
2024-04-13T06:38:34.210Z,14.53
2024-04-13T06:41:06.981Z,14.69
2024-04-13T06:43:34.175Z,14.74
2024-04-13T06:46:03.926Z,14.81
2024-04-13T06:48:31.988Z,14.93
2024-04-13T06:51:02.106Z,14.95
2024-04-13T06:53:29.365Z,15.05
2024-04-13T06:55:59.455Z,15.16
2024-04-13T06:58:29.386Z,15.26
2024-04-13T07:00:59.905Z,15.28
2024-04-13T07:03:27.371Z,15.36
2024-04-13T07:06:01.744Z,15.45
2024-04-13T07:08:29.177Z,15.57
2024-04-13T07:11:00.608Z,15.70
2024-04-13T07:13:30.587Z,15.81
2024-04-13T07:16:00.457Z,15.81
2024-04-13T07:18:28.149Z,16.05
2024-04-13T07:20:58.125Z,16.19
2024-04-13T07:23:26.715Z,16.36
2024-04-13T07:26:03.118Z,16.44
2024-04-13T07:28:33.933Z,16.49
2024-04-13T07:31:03.723Z,16.52
2024-04-13T07:33:32.068Z,16.54
2024-04-13T07:36:04.128Z,16.61
2024-04-13T07:38:31.682Z,16.65
2024-04-13T07:41:01.747Z,16.78
2024-04-13T07:43:30.530Z,16.84
2024-04-13T07:46:04.067Z,16.81
2024-04-13T07:48:31.316Z,16.87
2024-04-13T07:51:03.180Z,16.97
2024-04-13T07:53:32.244Z,17.02
2024-04-13T07:56:02.140Z,17.13
2024-04-13T07:58:29.333Z,17.22
2024-04-13T08:01:04.927Z,17.28
2024-04-13T08:03:32.239Z,17.35
2024-04-13T08:06:02.031Z,17.44
2024-04-13T08:08:29.301Z,17.53
2024-04-13T08:10:59.154Z,17.56
2024-04-13T08:13:26.415Z,17.52
2024-04-13T08:15:56.201Z,17.46
2024-04-13T08:18:26.125Z,17.48
2024-04-13T08:20:56.023Z,17.60
2024-04-13T08:23:24.017Z,17.71
2024-04-13T08:25:53.903Z,17.71
2024-04-13T08:28:21.111Z,17.67
2024-04-13T08:30:51.020Z,17.76
2024-04-13T08:33:19.774Z,17.96
2024-04-13T08:36:04.752Z,17.93
2024-04-13T08:38:32.019Z,17.78
2024-04-13T08:41:04.368Z,17.75
2024-04-13T08:43:31.813Z,17.76
2024-04-13T08:46:09.000Z,17.84
2024-04-13T08:48:39.138Z,17.97
2024-04-13T08:51:13.616Z,18.10
2024-04-13T08:53:43.893Z,18.01
2024-04-13T08:56:14.478Z,18.03
2024-04-13T08:58:44.890Z,18.05
2024-04-13T09:01:18.083Z,18.09
2024-04-13T09:03:45.817Z,17.98
2024-04-13T09:06:18.907Z,18.00
2024-04-13T09:08:47.704Z,17.99
2024-04-13T09:11:18.951Z,18.09
2024-04-13T09:13:47.198Z,18.23
2024-04-13T09:16:17.333Z,18.39
2024-04-13T09:18:44.810Z,18.48
2024-04-13T09:21:16.327Z,18.51
2024-04-13T09:23:48.113Z,18.59
2024-04-13T09:26:17.915Z,18.67
2024-04-13T09:28:49.144Z,18.83
2024-04-13T09:31:20.331Z,19.05
2024-04-13T09:33:48.804Z,18.98
2024-04-13T09:36:24.537Z,18.97
2024-04-13T09:38:55.188Z,18.86
2024-04-13T09:41:25.694Z,18.96
2024-04-13T09:43:53.480Z,19.10
2024-04-13T09:46:23.865Z,18.97
2024-04-13T09:48:51.300Z,19.13
2024-04-13T09:51:21.226Z,19.05
2024-04-13T09:53:49.574Z,19.02
2024-04-13T09:56:22.628Z,19.30
2024-04-13T09:58:50.996Z,19.47
2024-04-13T10:01:21.982Z,19.57
2024-04-13T10:03:49.307Z,19.50
2024-04-13T10:06:20.075Z,19.66
2024-04-13T10:08:49.026Z,19.79
2024-04-13T10:11:23.661Z,20.02
2024-04-13T10:13:54.338Z,19.94
2024-04-13T10:16:24.836Z,20.35
2024-04-13T10:18:52.179Z,20.59
2024-04-13T10:21:25.057Z,20.62
2024-04-13T10:23:56.119Z,20.63
2024-04-13T10:26:32.611Z,20.83
2024-04-13T10:28:59.941Z,20.96
2024-04-13T10:31:31.153Z,20.73
2024-04-13T10:33:58.913Z,20.85
2024-04-13T10:36:32.331Z,20.95
2024-04-13T10:39:00.929Z,20.93
2024-04-13T10:41:38.134Z,20.75
2024-04-13T10:44:07.171Z,21.01
2024-04-13T10:46:37.289Z,21.12
2024-04-13T10:49:05.480Z,21.25
2024-04-13T10:51:37.878Z,21.03
2024-04-13T10:54:13.980Z,21.30
2024-04-13T10:56:48.010Z,21.26
2024-04-13T10:59:16.323Z,21.46
2024-04-13T11:01:46.905Z,21.65
2024-04-13T11:04:14.956Z,21.77
2024-04-13T11:06:45.578Z,21.71
2024-04-13T11:09:15.643Z,21.75
2024-04-13T11:11:48.496Z,21.87
2024-04-13T11:14:18.281Z,22.36
2024-04-13T11:16:48.098Z,22.32
2024-04-13T11:19:19.425Z,21.64
2024-04-13T11:21:50.306Z,21.95
2024-04-13T11:24:19.407Z,22.26
2024-04-13T11:26:52.357Z,22.59
2024-04-13T11:29:21.078Z,23.00
2024-04-13T11:31:51.474Z,23.20
2024-04-13T11:34:18.699Z,23.09
2024-04-13T11:36:48.618Z,23.00
2024-04-13T11:39:15.932Z,22.34
2024-04-13T11:41:45.715Z,21.99
2024-04-13T11:44:15.818Z,22.16
2024-04-13T11:46:46.170Z,22.27
2024-04-13T11:49:13.839Z,22.02
2024-04-13T11:51:44.238Z,22.32
2024-04-13T11:54:12.076Z,22.14
2024-04-13T11:56:45.063Z,22.51
2024-04-13T11:59:16.690Z,22.48
2024-04-13T12:01:46.641Z,22.55
2024-04-13T12:04:14.886Z,23.31
2024-04-13T12:06:48.771Z,24.42
2024-04-13T12:09:16.187Z,24.93
2024-04-13T12:11:45.947Z,25.35
2024-04-13T12:14:15.946Z,25.21
2024-04-13T12:16:48.938Z,26.11
2024-04-13T12:19:16.398Z,25.66
2024-04-13T12:21:46.228Z,25.62
2024-04-13T12:24:13.640Z,25.57
2024-04-13T12:26:43.878Z,25.12
2024-04-13T12:29:12.096Z,24.73
2024-04-13T12:31:47.156Z,24.99
2024-04-13T12:34:14.392Z,24.38
2024-04-13T12:36:44.217Z,24.38
2024-04-13T12:39:12.216Z,24.56
2024-04-13T12:41:42.236Z,24.88
2024-04-13T12:44:09.405Z,24.61
2024-04-13T12:46:39.392Z,25.24
2024-04-13T12:49:09.302Z,25.51
2024-04-13T12:51:39.194Z,25.98
2024-04-13T12:54:06.478Z,25.81
2024-04-13T12:56:36.453Z,25.03
2024-04-13T12:59:03.606Z,25.39
2024-04-13T13:01:33.422Z,25.19
2024-04-13T13:04:00.733Z,24.78
2024-04-13T13:06:34.746Z,24.83
2024-04-13T13:09:01.878Z,24.84
2024-04-13T13:11:32.465Z,25.23
2024-04-13T13:13:59.667Z,24.97
2024-04-13T13:16:29.578Z,24.58
2024-04-13T13:18:57.429Z,24.54
2024-04-13T13:21:28.529Z,24.09
2024-04-13T13:23:58.621Z,24.29
2024-04-13T13:26:28.634Z,23.91
2024-04-13T13:29:01.882Z,23.58
2024-04-13T13:31:31.834Z,23.37
2024-04-13T13:33:59.379Z,23.62
2024-04-13T13:36:29.448Z,23.86
2024-04-13T13:38:59.329Z,23.94
2024-04-13T13:41:32.086Z,23.99
2024-04-13T13:43:59.734Z,23.96
2024-04-13T13:46:29.939Z,24.26
2024-04-13T13:48:58.280Z,24.35
2024-04-13T13:51:28.161Z,23.95
2024-04-13T13:53:56.168Z,23.82
2024-04-13T13:56:28.689Z,23.71
2024-04-13T13:58:55.978Z,23.66
2024-04-13T14:01:25.776Z,23.64
2024-04-13T14:03:53.100Z,23.45
2024-04-13T14:06:23.149Z,23.58
2024-04-13T14:08:50.945Z,23.57
2024-04-13T14:11:20.682Z,23.56
2024-04-13T14:13:50.758Z,23.39
2024-04-13T14:16:20.681Z,23.31
2024-04-13T14:18:48.020Z,23.14
2024-04-13T14:21:17.823Z,23.18
2024-04-13T14:23:45.022Z,23.21
2024-04-13T14:26:14.832Z,23.00
2024-04-13T14:28:41.959Z,22.93
2024-04-13T14:31:14.497Z,23.20
2024-04-13T14:33:42.318Z,22.97
2024-04-13T14:36:12.221Z,23.07
2024-04-13T14:38:39.353Z,23.10
2024-04-13T14:41:09.057Z,22.78
2024-04-13T14:43:36.248Z,22.76
2024-04-13T14:46:06.058Z,22.58
2024-04-13T14:48:35.900Z,22.57
2024-04-13T14:51:05.905Z,22.43
2024-04-13T14:53:33.042Z,22.53
2024-04-13T14:56:02.788Z,22.45
2024-04-13T14:58:30.319Z,22.50
2024-04-13T15:01:06.110Z,22.30
2024-04-13T15:03:37.451Z,22.20
2024-04-13T15:06:07.549Z,22.15
2024-04-13T15:08:34.656Z,22.11
2024-04-13T15:11:07.487Z,22.03
2024-04-13T15:13:35.130Z,22.00
2024-04-13T15:16:05.221Z,21.98
2024-04-13T15:18:35.186Z,21.87
2024-04-13T15:21:08.377Z,21.83
2024-04-13T15:23:38.296Z,21.83
2024-04-13T15:26:08.182Z,21.74
2024-04-13T15:28:38.969Z,21.88
2024-04-13T15:31:07.301Z,21.88
2024-04-13T15:33:42.634Z,21.90
2024-04-13T15:36:15.920Z,22.03
2024-04-13T15:38:46.721Z,22.07
2024-04-13T15:41:16.909Z,22.08
2024-04-13T15:43:46.823Z,22.03
2024-04-13T15:46:13.974Z,22.14
2024-04-13T15:48:44.005Z,21.97
2024-04-13T15:51:11.287Z,22.03
2024-04-13T15:53:43.731Z,22.14
2024-04-13T15:56:13.337Z,22.06
2024-04-13T15:58:43.990Z,21.98
2024-04-13T16:01:11.443Z,22.08
2024-04-13T16:03:41.472Z,22.13
2024-04-13T16:06:08.962Z,22.24
2024-04-13T16:08:39.144Z,22.26
2024-04-13T16:11:09.134Z,22.26
2024-04-13T16:13:38.913Z,22.33
2024-04-13T16:16:21.065Z,22.33
2024-04-13T16:18:54.193Z,22.30
2024-04-13T16:21:21.426Z,22.18
2024-04-13T16:23:53.716Z,22.25
2024-04-13T16:26:23.799Z,22.10
2024-04-13T16:28:53.640Z,22.06
2024-04-13T16:31:20.856Z,21.91
2024-04-13T16:33:50.969Z,21.98
2024-04-13T16:36:18.275Z,21.91
2024-04-13T16:38:48.296Z,21.94
2024-04-13T16:41:20.069Z,21.77
2024-04-13T16:43:54.088Z,21.81
2024-04-13T16:46:21.326Z,21.77
2024-04-13T16:48:51.585Z,21.70
2024-04-13T16:51:18.831Z,21.69
2024-04-13T16:53:48.719Z,21.70
2024-04-13T16:56:15.971Z,21.55
2024-04-13T16:58:46.046Z,21.45
2024-04-13T17:01:15.979Z,21.53
2024-04-13T17:03:45.875Z,21.37
2024-04-13T17:06:16.733Z,21.30
2024-04-13T17:08:52.258Z,21.40
2024-04-13T17:11:22.631Z,21.20
2024-04-13T17:13:52.399Z,21.29
2024-04-13T17:16:26.862Z,21.22
2024-04-13T17:18:57.542Z,21.20
2024-04-13T17:21:24.791Z,21.06
2024-04-13T17:23:54.745Z,21.17
2024-04-13T17:26:24.550Z,21.12
2024-04-13T17:28:54.788Z,20.99
2024-04-13T17:31:24.594Z,20.91
2024-04-13T17:33:54.382Z,20.92
2024-04-13T17:36:22.548Z,20.93
2024-04-13T17:38:52.336Z,20.83
2024-04-13T17:41:19.574Z,20.75
2024-04-13T17:43:51.175Z,20.76
2024-04-13T17:46:19.037Z,20.59
2024-04-13T17:48:51.435Z,20.51
2024-04-13T17:51:19.636Z,20.49
2024-04-13T17:53:49.416Z,20.51
2024-04-13T17:56:22.188Z,20.51
2024-04-13T17:58:52.208Z,20.37
2024-04-13T18:01:20.772Z,20.43
2024-04-13T18:03:55.206Z,20.33
2024-04-13T18:06:22.605Z,20.33
2024-04-13T18:08:52.553Z,20.37
2024-04-13T18:11:19.908Z,20.32
2024-04-13T18:13:51.766Z,20.10
2024-04-13T18:16:21.788Z,20.08
2024-04-13T18:19:02.325Z,20.18
2024-04-13T18:21:29.557Z,20.15
2024-04-13T18:23:59.531Z,20.10
2024-04-13T18:26:29.906Z,19.86
2024-04-13T18:28:59.878Z,19.78
2024-04-13T18:31:30.053Z,19.59
2024-04-13T18:34:05.980Z,19.41
2024-04-13T18:36:33.814Z,19.44
2024-04-13T18:39:03.739Z,19.28
2024-04-13T18:41:31.116Z,19.22
2024-04-13T18:44:01.151Z,19.11
2024-04-13T18:46:28.454Z,18.94
2024-04-13T18:48:58.456Z,18.86
2024-04-13T18:51:31.134Z,18.88
2024-04-13T18:54:02.289Z,19.04
2024-04-13T18:56:29.867Z,18.89
2024-04-13T18:59:02.074Z,18.72
2024-04-13T19:01:29.316Z,18.71
2024-04-13T19:04:00.753Z,18.60
2024-04-13T19:06:34.112Z,18.60
2024-04-13T19:09:04.229Z,18.54
2024-04-13T19:11:32.798Z,18.66
2024-04-13T19:14:04.372Z,18.67
2024-04-13T19:16:32.012Z,18.52
2024-04-13T19:19:03.878Z,18.40
2024-04-13T19:21:34.125Z,18.31
2024-04-13T19:24:04.914Z,18.27
2024-04-13T19:26:32.560Z,18.33
2024-04-13T19:29:07.504Z,18.45
2024-04-13T19:31:35.807Z,18.58
2024-04-13T19:34:08.313Z,18.47
2024-04-13T19:36:39.295Z,18.63
2024-04-13T19:39:10.768Z,18.58
2024-04-13T19:41:40.048Z,18.57
2024-04-13T19:44:11.352Z,18.55
2024-04-13T19:46:38.682Z,18.56
2024-04-13T19:49:08.467Z,18.57
2024-04-13T19:51:39.813Z,18.53
2024-04-13T19:54:10.140Z,18.46
2024-04-13T19:56:37.373Z,18.41
2024-04-13T19:59:07.275Z,18.52
2024-04-13T20:01:36.160Z,18.49
2024-04-13T20:04:06.121Z,18.39
2024-04-13T20:06:33.724Z,18.36
2024-04-13T20:09:06.782Z,18.43
2024-04-13T20:11:33.947Z,18.35
2024-04-13T20:14:03.690Z,18.36
2024-04-13T20:16:49.366Z,18.42
2024-04-13T20:19:19.399Z,18.32
2024-04-13T20:21:49.358Z,18.31
2024-04-13T20:24:23.054Z,18.44
2024-04-13T20:26:50.400Z,18.36
2024-04-13T20:29:20.204Z,18.31
2024-04-13T20:31:50.168Z,18.35
2024-04-13T20:34:17.345Z,18.36
2024-04-13T20:36:47.266Z,18.33
2024-04-13T20:39:14.550Z,18.42
2024-04-13T20:41:49.121Z,18.28
2024-04-13T20:44:16.672Z,18.38
2024-04-13T20:46:46.476Z,18.37
2024-04-13T20:49:16.639Z,18.38
2024-04-13T20:51:46.659Z,18.37
2024-04-13T20:54:14.014Z,18.31
2024-04-13T20:56:43.888Z,18.34
2024-04-13T20:59:14.057Z,18.27
2024-04-13T21:01:43.897Z,18.23
2024-04-13T21:04:11.269Z,18.17
2024-04-13T21:06:41.347Z,18.17
2024-04-13T21:09:09.537Z,18.11
2024-04-13T21:11:39.783Z,18.09
2024-04-13T21:14:07.185Z,18.03
2024-04-13T21:16:40.827Z,18.01
2024-04-13T21:19:08.357Z,17.99
2024-04-13T21:21:38.216Z,17.89
2024-04-13T21:24:05.970Z,17.92
2024-04-13T21:26:35.922Z,17.89
2024-04-13T21:29:03.512Z,17.86
2024-04-13T21:31:33.330Z,17.89
2024-04-13T21:34:03.651Z,17.89
2024-04-13T21:36:33.578Z,17.92
2024-04-13T21:39:01.016Z,17.77
2024-04-13T21:41:30.931Z,17.79
2024-04-13T21:43:58.411Z,17.79
2024-04-13T21:46:28.411Z,17.65
2024-04-13T21:48:58.521Z,17.78
2024-04-13T21:51:28.392Z,17.76
2024-04-13T21:54:00.958Z,17.70
2024-04-13T21:56:28.421Z,17.65
2024-04-13T21:59:00.939Z,17.60
2024-04-13T22:01:28.258Z,17.68
2024-04-13T22:03:58.539Z,17.55
2024-04-13T22:06:31.287Z,17.63
2024-04-13T22:09:01.345Z,17.55
2024-04-13T22:11:28.701Z,17.62
2024-04-13T22:13:58.672Z,17.60
2024-04-13T22:16:27.731Z,17.55
2024-04-13T22:18:59.601Z,17.54
2024-04-13T22:21:30.638Z,17.59
2024-04-13T22:24:02.897Z,17.56
2024-04-13T22:26:31.273Z,17.52
2024-04-13T22:29:01.038Z,17.54
2024-04-13T22:31:28.935Z,17.42
2024-04-13T22:33:59.607Z,17.39
2024-04-13T22:36:32.057Z,17.34
2024-04-13T22:39:12.649Z,17.32
2024-04-13T22:41:43.471Z,17.34
2024-04-13T22:44:16.244Z,17.26
2024-04-13T22:46:43.933Z,17.38
2024-04-13T22:49:13.944Z,17.26
2024-04-13T22:51:41.751Z,17.31
2024-04-13T22:54:15.989Z,17.21
2024-04-13T22:56:43.234Z,17.14
2024-04-13T22:59:18.331Z,17.26
2024-04-13T23:01:45.743Z,17.30
2024-04-13T23:04:15.712Z,17.21
2024-04-13T23:06:43.012Z,17.29
2024-04-13T23:09:16.132Z,17.23
2024-04-13T23:11:45.180Z,17.10
2024-04-13T23:14:14.909Z,17.25
2024-04-13T23:16:42.058Z,17.17
2024-04-13T23:19:11.898Z,17.30
2024-04-13T23:21:39.489Z,17.30
2024-04-13T23:24:09.834Z,17.28
2024-04-13T23:26:41.378Z,17.32
2024-04-13T23:29:13.092Z,17.38
2024-04-13T23:31:42.439Z,17.29
2024-04-13T23:34:12.476Z,17.17
2024-04-13T23:36:39.959Z,17.25
2024-04-13T23:39:11.584Z,17.27
2024-04-13T23:41:44.282Z,17.33
2024-04-13T23:44:16.827Z,17.30
2024-04-13T23:46:44.076Z,17.28
2024-04-13T23:49:14.029Z,17.29
2024-04-13T23:51:44.086Z,17.32
2024-04-13T23:54:13.972Z,17.17
2024-04-13T23:56:45.820Z,17.16
2024-04-13T23:59:15.637Z,17.21
